Main page
METAR-TAF:

METAR-TAF

Airports :

Antwerp International Airport

Antwerp, Belgium

latitude: 51-12N, longitude: 004-28E, elevation: 12 m

Current weather observation

The report was made 41 minutes ago, at 21:50 UTC
Calm wind
Temperature 12°C
Humidity 88%
Pressure 1023 hPa
Visibility 10 km or more
no clouds below 1500 m and no cumulonimbus

METAR: EBAW 222150Z AUTO 00000KT CAVOK 12/10 Q1023

Time: 00:31 (22:31 UTC)

Forecast

The report was made 2 hours and 16 minutes ago, at 20:15 UTC
Forecast valid from 22 at 21 UTC to 23 at 06 UTC
Wind 5 kt from the East
Visibility 10 km or more
no clouds below 1500 m and no cumulonimbus
Temporary
from 23 at 00 UTC to 23 at 06 UTC
Visibility: 3000 m
mist
Probability 30% :
Temporary
from 23 at 03 UTC to 23 at 06 UTC
Visibility: 1200 m
patches of fog

TAF: EBAW 222015Z 2221/2306 08005KT CAVOK TEMPO 2300/2306 3000 BR PROB30 TEMPO 2303/2306 1200 BCFG

Weather observations and forecasts of more than 4000 airports (METAR and TAF reports).

The available stations are represented by yellow and red dots on the map.

Hover mouse over dot to see the name of the station.

Then click to see weather observations and forecasts.

To change the map : click on the green buttons with a black cross to zoom in, on the green button with a dash to zoom out, or on the green arrows for adjacent maps.


METAR-TAF: